createdAt,value
2022-11-23T00:01:18.517Z,10.67
2022-11-23T00:03:46.837Z,10.68
2022-11-23T00:06:13.408Z,10.69
2022-11-23T00:08:40.454Z,10.70
2022-11-23T00:11:06.953Z,10.71
2022-11-23T00:13:35.378Z,10.72
2022-11-23T00:16:06.295Z,10.75
2022-11-23T00:18:32.618Z,10.74
2022-11-23T00:20:59.069Z,10.75
2022-11-23T00:23:25.429Z,10.76
2022-11-23T00:25:52.465Z,10.77
2022-11-23T00:28:18.838Z,10.77
2022-11-23T00:30:49.833Z,10.78
2022-11-23T00:33:17.255Z,10.77
2022-11-23T00:35:43.802Z,10.77
2022-11-23T00:38:10.354Z,10.77
2022-11-23T00:40:36.873Z,10.76
2022-11-23T00:43:03.730Z,10.76
2022-11-23T00:45:30.175Z,10.76
2022-11-23T00:47:56.617Z,10.76
2022-11-23T00:50:23.004Z,10.75
2022-11-23T00:52:49.354Z,10.76
2022-11-23T00:55:15.828Z,10.76
2022-11-23T00:57:42.126Z,10.75
2022-11-23T01:00:08.985Z,10.76
2022-11-23T01:02:36.137Z,10.77
2022-11-23T01:05:03.480Z,10.76
2022-11-23T01:07:32.619Z,10.77
2022-11-23T01:09:59.182Z,10.77
2022-11-23T01:12:25.673Z,10.77
2022-11-23T01:14:53.900Z,10.78
2022-11-23T01:17:20.289Z,10.76
2022-11-23T01:19:46.772Z,10.77
2022-11-23T01:22:13.276Z,10.76
2022-11-23T01:24:39.581Z,10.77
2022-11-23T01:27:05.901Z,10.79
2022-11-23T01:29:32.778Z,10.79
2022-11-23T01:34:43.753Z,10.82
2022-11-23T01:37:10.205Z,10.82
2022-11-23T01:39:36.621Z,10.84
2022-11-23T01:42:06.880Z,10.84
2022-11-23T01:44:35.100Z,10.85
2022-11-23T01:47:10.893Z,10.86
2022-11-23T01:49:44.860Z,10.88
2022-11-23T01:52:18.317Z,10.88
2022-11-23T01:54:50.553Z,10.89
2022-11-23T01:57:27.898Z,10.88
2022-11-23T01:59:56.241Z,10.89
2022-11-23T02:02:22.684Z,10.88
2022-11-23T02:04:52.168Z,10.88
2022-11-23T02:07:19.331Z,10.89
2022-11-23T02:09:47.148Z,10.91
2022-11-23T02:12:14.457Z,10.90
2022-11-23T02:14:42.021Z,10.90
2022-11-23T02:17:09.034Z,10.90
2022-11-23T02:20:06.105Z,10.90
2022-11-23T02:22:40.807Z,10.91
2022-11-23T02:25:30.924Z,10.90
2022-11-23T02:27:57.863Z,10.90
2022-11-23T02:30:24.302Z,10.90
2022-11-23T02:32:50.653Z,10.90
2022-11-23T02:35:17.090Z,10.90
2022-11-23T02:37:43.806Z,10.91
2022-11-23T02:40:23.436Z,10.89
2022-11-23T02:42:50.597Z,10.88
2022-11-23T02:45:28.810Z,10.88
2022-11-23T02:47:55.240Z,10.86
2022-11-23T02:50:21.765Z,10.85
2022-11-23T02:52:48.266Z,10.84
2022-11-23T02:55:14.752Z,10.84
2022-11-23T02:57:41.080Z,10.83
2022-11-23T03:00:08.120Z,10.83
2022-11-23T03:02:34.465Z,10.83
2022-11-23T03:05:00.790Z,10.83
2022-11-23T03:07:27.259Z,10.84
2022-11-23T03:09:53.625Z,10.84
2022-11-23T03:12:20.050Z,10.84
2022-11-23T03:14:46.758Z,10.85
2022-11-23T03:17:13.110Z,10.85
2022-11-23T03:19:39.441Z,10.85
2022-11-23T03:22:05.864Z,10.84
2022-11-23T03:24:32.256Z,10.85
2022-11-23T03:26:58.612Z,10.86
2022-11-23T03:29:26.415Z,10.85
2022-11-23T03:31:53.975Z,10.85
2022-11-23T03:34:20.374Z,10.84
2022-11-23T03:36:46.795Z,10.83
2022-11-23T03:39:13.159Z,10.82
2022-11-23T03:41:39.672Z,10.82
2022-11-23T03:44:05.983Z,10.82
2022-11-23T03:46:32.309Z,10.80
2022-11-23T03:48:58.712Z,10.78
2022-11-23T03:51:25.048Z,10.80
2022-11-23T03:53:51.357Z,10.81
2022-11-23T03:56:17.787Z,10.83
2022-11-23T03:58:44.139Z,10.83
2022-11-23T04:01:10.559Z,10.85
2022-11-23T04:03:37.028Z,10.86
2022-11-23T04:06:03.508Z,10.87
2022-11-23T04:08:29.882Z,10.88
2022-11-23T04:10:57.840Z,10.89
2022-11-23T04:13:24.662Z,10.91
2022-11-23T04:15:51.134Z,10.91
2022-11-23T04:18:17.473Z,10.91
2022-11-23T04:20:43.831Z,10.92
2022-11-23T04:23:13.280Z,10.94
2022-11-23T04:25:40.288Z,10.94
2022-11-23T04:28:06.604Z,10.95
2022-11-23T04:30:33.090Z,10.96
2022-11-23T04:32:59.399Z,10.96
2022-11-23T04:35:25.710Z,10.98
2022-11-23T04:37:52.038Z,10.98
2022-11-23T04:40:18.403Z,10.98
2022-11-23T04:42:45.491Z,11.00
2022-11-23T04:45:11.874Z,11.02
2022-11-23T04:47:38.334Z,11.04
2022-11-23T04:50:05.096Z,11.04
2022-11-23T04:52:31.473Z,11.04
2022-11-23T04:54:57.815Z,11.06
2022-11-23T04:57:24.162Z,11.06
2022-11-23T04:59:50.510Z,11.07
2022-11-23T05:02:16.925Z,11.07
2022-11-23T05:04:43.235Z,11.08
2022-11-23T05:07:09.593Z,11.08
2022-11-23T05:09:35.985Z,11.07
2022-11-23T05:12:02.326Z,11.07
2022-11-23T05:14:28.649Z,11.06
2022-11-23T05:16:55.153Z,11.05
2022-11-23T05:19:21.453Z,11.03
2022-11-23T05:21:47.835Z,11.03
2022-11-23T05:24:14.226Z,11.03
2022-11-23T05:26:40.550Z,11.01
2022-11-23T05:29:06.867Z,11.01
2022-11-23T05:31:33.699Z,11.01
2022-11-23T05:34:00.122Z,10.99
2022-11-23T05:36:26.468Z,10.97
2022-11-23T05:38:52.805Z,10.97
2022-11-23T05:41:19.163Z,10.96
2022-11-23T05:43:45.470Z,10.94
2022-11-23T05:46:11.833Z,10.94
2022-11-23T05:48:38.181Z,10.92
2022-11-23T05:51:05.651Z,10.92
2022-11-23T05:53:32.853Z,10.89
2022-11-23T05:56:01.282Z,10.87
2022-11-23T05:58:28.500Z,10.87
2022-11-23T06:00:59.419Z,10.87
2022-11-23T06:03:25.903Z,10.85
2022-11-23T06:05:52.287Z,10.84
2022-11-23T06:08:18.692Z,10.83
2022-11-23T06:10:44.995Z,10.83
2022-11-23T06:13:11.329Z,10.83
2022-11-23T06:15:37.639Z,10.82
2022-11-23T06:18:04.129Z,10.82
2022-11-23T06:20:30.558Z,10.82
2022-11-23T06:22:57.287Z,10.82
2022-11-23T06:25:24.810Z,10.84
2022-11-23T06:28:00.131Z,10.85
2022-11-23T06:30:28.637Z,10.85
2022-11-23T06:32:55.670Z,10.86
2022-11-23T06:35:22.166Z,10.85
2022-11-23T06:37:50.241Z,10.86
2022-11-23T06:40:16.996Z,10.85
2022-11-23T06:42:43.383Z,10.85
2022-11-23T06:45:10.371Z,10.86
2022-11-23T06:47:36.700Z,10.87
2022-11-23T06:50:03.337Z,10.89
2022-11-23T06:52:29.692Z,10.89
2022-11-23T06:54:56.072Z,10.91
2022-11-23T06:57:22.865Z,10.91
2022-11-23T06:59:49.289Z,10.92
2022-11-23T07:02:15.719Z,10.93
2022-11-23T07:04:42.129Z,10.94
2022-11-23T07:07:09.016Z,10.95
2022-11-23T07:09:35.890Z,10.96
2022-11-23T07:12:02.359Z,10.97
2022-11-23T07:14:28.698Z,10.97
2022-11-23T07:16:55.051Z,10.97
2022-11-23T07:19:21.427Z,10.95
2022-11-23T07:21:47.735Z,10.96
2022-11-23T07:24:14.080Z,10.96
2022-11-23T07:26:40.440Z,10.97
2022-11-23T07:29:06.761Z,10.98
2022-11-23T07:31:33.078Z,10.98
2022-11-23T07:33:59.469Z,10.99
2022-11-23T07:36:25.844Z,11.01
2022-11-23T07:38:52.160Z,11.02
2022-11-23T07:41:18.638Z,11.03
2022-11-23T07:43:44.952Z,11.04
2022-11-23T07:46:23.842Z,11.05
2022-11-23T07:48:50.402Z,11.06
2022-11-23T07:51:19.446Z,11.07
2022-11-23T07:53:46.713Z,11.09
2022-11-23T07:56:13.463Z,11.10
2022-11-23T07:58:39.837Z,11.11
2022-11-23T08:01:06.173Z,11.13
2022-11-23T08:03:32.567Z,11.13
2022-11-23T08:05:58.992Z,11.16
2022-11-23T08:08:25.359Z,11.16
2022-11-23T08:10:54.185Z,11.17
2022-11-23T08:13:21.888Z,11.19
2022-11-23T08:15:53.767Z,11.21
2022-11-23T08:18:21.424Z,11.22
2022-11-23T08:20:47.885Z,11.24
2022-11-23T08:23:14.230Z,11.26
2022-11-23T08:25:40.647Z,11.28
2022-11-23T08:28:06.980Z,11.28
2022-11-23T08:30:34.316Z,11.31
2022-11-23T08:33:08.719Z,11.33
2022-11-23T08:35:39.616Z,11.35
2022-11-23T08:38:07.809Z,11.37
2022-11-23T08:40:35.018Z,11.40
2022-11-23T08:43:01.567Z,11.42
2022-11-23T08:45:28.533Z,11.43
2022-11-23T08:48:00.784Z,11.47
2022-11-23T08:50:29.200Z,11.47
2022-11-23T08:52:57.073Z,11.47
2022-11-23T08:55:24.699Z,11.51
2022-11-23T08:57:54.171Z,11.52
2022-11-23T09:00:20.621Z,11.55
2022-11-23T09:02:46.971Z,11.57
2022-11-23T09:05:13.354Z,11.59
2022-11-23T09:07:40.004Z,11.61
2022-11-23T09:10:07.128Z,11.63
2022-11-23T09:12:33.704Z,11.66
2022-11-23T09:15:00.030Z,11.67
2022-11-23T09:17:26.363Z,11.68
2022-11-23T09:19:52.705Z,11.69
2022-11-23T09:22:19.032Z,11.69
2022-11-23T09:24:45.385Z,11.69
2022-11-23T09:27:11.790Z,11.70
2022-11-23T09:29:38.173Z,11.73
2022-11-23T09:32:04.719Z,11.77
2022-11-23T09:34:31.339Z,11.81
2022-11-23T09:36:58.221Z,11.84
2022-11-23T09:39:24.561Z,11.89
2022-11-23T09:42:13.494Z,11.94
2022-11-23T09:45:06.075Z,11.99
2022-11-23T09:48:05.986Z,12.03
2022-11-23T09:50:48.236Z,12.07
2022-11-23T09:53:27.975Z,12.12
2022-11-23T09:55:57.100Z,12.16
2022-11-23T09:58:29.485Z,12.20
2022-11-23T10:01:05.238Z,12.27
2022-11-23T10:03:36.940Z,12.34
2022-11-23T10:06:19.605Z,12.40
2022-11-23T10:09:07.253Z,12.45
2022-11-23T10:11:49.009Z,12.49
2022-11-23T10:14:35.782Z,12.54
2022-11-23T10:17:23.331Z,12.61
2022-11-23T10:19:58.786Z,12.66
2022-11-23T10:22:38.388Z,12.71
2022-11-23T10:25:16.375Z,12.78
2022-11-23T10:27:45.838Z,12.82
2022-11-23T10:30:13.841Z,12.86
2022-11-23T10:32:52.351Z,12.92
2022-11-23T10:35:28.186Z,12.96
2022-11-23T10:38:11.261Z,13.01
2022-11-23T10:40:49.809Z,13.06
2022-11-23T10:43:22.513Z,13.09
2022-11-23T10:45:48.859Z,13.13
2022-11-23T10:48:36.857Z,13.19
2022-11-23T10:51:19.927Z,13.23
2022-11-23T10:53:53.343Z,13.27
2022-11-23T10:56:19.792Z,13.30
2022-11-23T10:58:46.368Z,13.34
2022-11-23T11:01:25.441Z,13.38
2022-11-23T11:03:53.556Z,13.42
2022-11-23T11:06:25.762Z,13.46
2022-11-23T11:08:56.074Z,13.50
2022-11-23T11:11:22.331Z,13.54
2022-11-23T11:13:49.471Z,13.60
2022-11-23T11:16:18.782Z,13.67
2022-11-23T11:18:45.179Z,13.72
2022-11-23T11:21:28.723Z,13.80
2022-11-23T11:24:02.662Z,13.89
2022-11-23T11:26:30.921Z,13.95
2022-11-23T11:29:03.046Z,14.05
2022-11-23T11:31:59.819Z,14.12
2022-11-23T11:35:02.861Z,14.19
2022-11-23T11:37:37.663Z,14.22
2022-11-23T11:40:09.591Z,14.24
2022-11-23T11:42:42.037Z,14.25
2022-11-23T11:45:16.993Z,14.31
2022-11-23T11:47:47.685Z,14.35
2022-11-23T11:50:31.492Z,14.44
2022-11-23T11:53:04.753Z,14.49
2022-11-23T11:55:50.828Z,14.55
2022-11-23T11:58:17.920Z,14.58
2022-11-23T12:00:47.387Z,14.58
2022-11-23T12:03:39.302Z,14.58
2022-11-23T12:06:23.658Z,14.56
2022-11-23T12:09:06.574Z,14.53
2022-11-23T12:11:33.147Z,14.47
2022-11-23T12:14:05.455Z,14.42
2022-11-23T12:17:24.948Z,14.35
2022-11-23T12:19:59.778Z,14.28
2022-11-23T12:22:28.929Z,14.21
2022-11-23T12:25:34.553Z,14.16
2022-11-23T12:28:16.473Z,14.12
2022-11-23T12:30:51.756Z,14.08
2022-11-23T12:36:52.002Z,14.02
2022-11-23T12:39:57.673Z,13.98
2022-11-23T12:42:42.743Z,13.94
2022-11-23T12:45:18.155Z,13.89
2022-11-23T12:48:12.257Z,13.84
2022-11-23T12:50:57.534Z,13.81
2022-11-23T12:53:49.788Z,13.78
2022-11-23T12:56:51.436Z,13.74
2022-11-23T12:59:19.848Z,13.71
2022-11-23T13:01:52.193Z,13.69
2022-11-23T13:04:36.485Z,13.67
2022-11-23T13:07:35.403Z,13.67
2022-11-23T13:10:29.825Z,13.68
2022-11-23T13:13:15.673Z,13.68
2022-11-23T13:15:48.164Z,13.68
2022-11-23T13:18:26.677Z,13.68
2022-11-23T13:21:10.173Z,13.70
2022-11-23T13:23:38.369Z,13.71
2022-11-23T13:26:16.304Z,13.71
2022-11-23T13:28:44.305Z,13.70
2022-11-23T13:31:16.749Z,13.68
2022-11-23T13:33:48.337Z,13.66
2022-11-23T13:36:56.368Z,13.64
2022-11-23T13:39:44.195Z,13.60
2022-11-23T13:42:11.434Z,13.55
2022-11-23T13:44:37.935Z,13.51
2022-11-23T13:47:06.612Z,13.46
2022-11-23T13:49:38.941Z,13.42
2022-11-23T13:52:20.896Z,13.37
2022-11-23T13:55:18.095Z,13.32
2022-11-23T13:58:11.091Z,13.28
2022-11-23T14:00:49.512Z,13.25
2022-11-23T14:03:51.593Z,13.20
2022-11-23T14:06:38.162Z,13.16
2022-11-23T14:09:29.674Z,13.11
2022-11-23T14:12:03.470Z,13.08
2022-11-23T14:15:07.750Z,13.05
2022-11-23T14:18:05.894Z,13.00
2022-11-23T14:21:13.193Z,12.98
2022-11-23T14:23:39.521Z,12.97
2022-11-23T14:26:23.033Z,12.93
2022-11-23T14:29:23.462Z,12.86
2022-11-23T14:32:34.659Z,12.79
2022-11-23T14:35:33.097Z,12.71
2022-11-23T14:38:34.163Z,12.65
2022-11-23T14:41:12.863Z,12.57
2022-11-23T14:43:42.321Z,12.52
2022-11-23T14:46:21.804Z,12.47
2022-11-23T14:48:49.397Z,12.39
2022-11-23T14:51:28.098Z,12.36
2022-11-23T14:53:58.081Z,12.28
2022-11-23T14:56:35.608Z,12.24
2022-11-23T14:59:06.173Z,12.17
2022-11-23T15:01:33.323Z,12.13
2022-11-23T15:04:07.532Z,12.04
2022-11-23T15:06:42.327Z,11.98
2022-11-23T15:09:38.253Z,11.92
2022-11-23T15:12:23.594Z,11.84
2022-11-23T15:14:51.291Z,11.74
2022-11-23T15:17:20.736Z,11.70
2022-11-23T15:19:58.448Z,11.62
2022-11-23T15:22:26.628Z,11.55
2022-11-23T15:24:53.349Z,11.48
2022-11-23T15:27:28.295Z,11.42
2022-11-23T15:29:57.093Z,11.36
2022-11-23T15:32:31.898Z,11.31
2022-11-23T15:35:02.955Z,11.24
2022-11-23T15:37:29.767Z,11.18
2022-11-23T15:39:57.009Z,11.12
2022-11-23T15:42:25.296Z,11.07
2022-11-23T15:44:53.993Z,11.02
2022-11-23T15:47:28.228Z,10.96
2022-11-23T15:50:04.101Z,10.91
2022-11-23T15:52:35.644Z,10.86
2022-11-23T15:55:10.050Z,10.83
2022-11-23T15:57:39.773Z,10.77
2022-11-23T16:00:07.438Z,10.70
2022-11-23T16:02:35.007Z,10.65
2022-11-23T16:05:22.172Z,10.61
2022-11-23T16:07:57.662Z,10.56
2022-11-23T16:10:32.182Z,10.50
2022-11-23T16:13:00.979Z,10.45
2022-11-23T16:15:27.231Z,10.40
2022-11-23T16:17:53.689Z,10.36
2022-11-23T16:20:24.330Z,10.33
2022-11-23T16:22:52.791Z,10.29
2022-11-23T16:25:30.101Z,10.25
2022-11-23T16:28:14.871Z,10.23
2022-11-23T16:30:46.369Z,10.24
2022-11-23T16:33:15.128Z,10.23
2022-11-23T16:35:41.482Z,10.24
2022-11-23T16:38:08.145Z,10.26
2022-11-23T16:40:34.681Z,10.30
2022-11-23T16:43:01.063Z,10.33
2022-11-23T16:45:27.433Z,10.38
2022-11-23T16:47:57.196Z,10.43
2022-11-23T16:50:24.463Z,10.47
2022-11-23T16:52:51.317Z,10.52
2022-11-23T16:55:18.047Z,10.57
2022-11-23T16:57:45.183Z,10.62
2022-11-23T17:00:16.821Z,10.69
2022-11-23T17:02:43.386Z,10.73
2022-11-23T17:05:18.099Z,10.79
2022-11-23T17:07:45.383Z,10.83
2022-11-23T17:10:13.734Z,10.87
2022-11-23T17:12:45.745Z,10.91
2022-11-23T17:15:13.331Z,10.95
2022-11-23T17:17:39.813Z,10.97
2022-11-23T17:20:10.191Z,11.01
2022-11-23T17:22:36.504Z,11.02
2022-11-23T17:25:03.005Z,11.03
2022-11-23T17:27:32.907Z,11.01
2022-11-23T17:30:01.653Z,11.02
2022-11-23T17:32:28.846Z,11.02
2022-11-23T17:34:55.221Z,11.01
2022-11-23T17:37:23.764Z,11.00
2022-11-23T17:39:50.874Z,10.97
2022-11-23T17:42:17.522Z,10.97
2022-11-23T17:44:43.856Z,10.97
2022-11-23T17:47:37.985Z,10.98
2022-11-23T17:50:08.617Z,10.98
2022-11-23T17:52:34.958Z,10.97
2022-11-23T17:55:01.317Z,10.97
2022-11-23T17:57:27.660Z,10.96
2022-11-23T17:59:54.483Z,10.97
2022-11-23T18:02:21.290Z,10.96
2022-11-23T18:04:47.940Z,10.95
2022-11-23T18:07:15.676Z,10.95
2022-11-23T18:09:42.547Z,10.94
2022-11-23T18:12:09.629Z,10.92
2022-11-23T18:14:36.002Z,10.92
2022-11-23T18:17:02.346Z,10.90
2022-11-23T18:19:28.677Z,10.89
2022-11-23T18:21:55.042Z,10.89
2022-11-23T18:24:21.442Z,10.88
2022-11-23T18:26:57.129Z,10.88
2022-11-23T18:29:23.509Z,10.87
2022-11-23T18:31:49.798Z,10.86
2022-11-23T18:34:16.107Z,10.87
2022-11-23T18:36:42.684Z,10.86
2022-11-23T18:39:09.106Z,10.85
2022-11-23T18:41:35.412Z,10.85
2022-11-23T18:44:01.745Z,10.85
2022-11-23T18:46:29.293Z,10.84
2022-11-23T18:48:57.258Z,10.84
2022-11-23T18:51:23.746Z,10.83
2022-11-23T18:53:51.290Z,10.82
2022-11-23T18:56:17.934Z,10.82
2022-11-23T18:58:45.684Z,10.81
2022-11-23T19:01:20.494Z,10.79
2022-11-23T19:03:49.285Z,10.79
2022-11-23T19:06:18.155Z,10.79
2022-11-23T19:08:49.993Z,10.79
2022-11-23T19:11:22.218Z,10.78
2022-11-23T19:13:51.305Z,10.78
2022-11-23T19:16:21.419Z,10.79
2022-11-23T19:18:53.535Z,10.79
2022-11-23T19:21:21.991Z,10.79
2022-11-23T19:23:51.697Z,10.79
2022-11-23T19:26:18.692Z,10.77
2022-11-23T19:28:45.930Z,10.78
2022-11-23T19:31:12.533Z,10.78
2022-11-23T19:33:39.137Z,10.78
2022-11-23T19:36:10.213Z,10.78
2022-11-23T19:38:36.630Z,10.77
2022-11-23T19:41:03.119Z,10.78
2022-11-23T19:43:29.500Z,10.78
2022-11-23T19:45:57.525Z,10.78
2022-11-23T19:48:24.665Z,10.79
2022-11-23T19:51:00.131Z,10.79
2022-11-23T19:53:30.835Z,10.79
2022-11-23T19:56:19.421Z,10.81
2022-11-23T19:58:46.800Z,10.79
2022-11-23T20:01:15.948Z,10.79
2022-11-23T20:03:46.064Z,10.79
2022-11-23T20:06:18.445Z,10.80
2022-11-23T20:08:45.623Z,10.79
2022-11-23T20:11:15.224Z,10.81
2022-11-23T20:13:42.888Z,10.81
2022-11-23T20:16:12.600Z,10.82
2022-11-23T20:18:39.754Z,10.83
2022-11-23T20:21:27.342Z,10.83
2022-11-23T20:24:06.063Z,10.84
2022-11-23T20:26:34.009Z,10.82
2022-11-23T20:29:00.409Z,10.82
2022-11-23T20:31:29.403Z,10.82
2022-11-23T20:33:56.812Z,10.82
2022-11-23T20:36:29.008Z,10.83
2022-11-23T20:38:55.950Z,10.83
2022-11-23T20:41:28.145Z,10.84
2022-11-23T20:43:57.314Z,10.83
2022-11-23T20:46:59.891Z,10.83
2022-11-23T20:49:11.330Z,10.84
2022-11-23T20:51:37.841Z,10.84
2022-11-23T20:54:04.237Z,10.84
2022-11-23T20:56:32.072Z,10.83
2022-11-23T20:59:04.029Z,10.83
2022-11-23T21:01:30.493Z,10.84
2022-11-23T21:03:58.785Z,10.85
2022-11-23T21:06:26.598Z,10.85
2022-11-23T21:08:53.856Z,10.85
2022-11-23T21:11:40.271Z,10.86
2022-11-23T21:14:17.174Z,10.90
2022-11-23T21:16:56.250Z,10.90
2022-11-23T21:19:34.510Z,10.89
2022-11-23T21:22:12.104Z,10.89
2022-11-23T21:24:39.645Z,10.88
2022-11-23T21:27:07.924Z,10.89
2022-11-23T21:29:34.761Z,10.89
2022-11-23T21:32:03.990Z,10.91
2022-11-23T21:34:31.393Z,10.90
2022-11-23T21:36:58.366Z,10.89
2022-11-23T21:39:24.719Z,10.89
2022-11-23T21:41:53.522Z,10.88
2022-11-23T21:44:22.011Z,10.87
2022-11-23T21:46:48.566Z,10.86
2022-11-23T21:49:14.987Z,10.86
2022-11-23T21:51:42.643Z,10.86
2022-11-23T21:54:13.698Z,10.86
2022-11-23T21:56:40.148Z,10.87
2022-11-23T21:59:06.615Z,10.88
2022-11-23T22:01:35.062Z,10.89
2022-11-23T22:04:12.713Z,10.91
2022-11-23T22:06:40.134Z,10.91
2022-11-23T22:09:09.230Z,10.92
2022-11-23T22:11:37.739Z,10.93
2022-11-23T22:14:09.636Z,10.93
2022-11-23T22:16:38.708Z,10.94
2022-11-23T22:19:06.439Z,10.93
2022-11-23T22:21:35.698Z,10.95
2022-11-23T22:24:03.478Z,10.93
2022-11-23T22:26:29.949Z,10.93
2022-11-23T22:28:57.679Z,10.92
2022-11-23T22:31:25.485Z,10.94
2022-11-23T22:33:53.264Z,10.93
2022-11-23T22:36:24.006Z,10.94
2022-11-23T22:39:01.668Z,10.93
2022-11-23T22:41:29.729Z,10.92
2022-11-23T22:43:56.509Z,10.89
2022-11-23T22:46:24.577Z,10.87
2022-11-23T22:48:51.945Z,10.85
2022-11-23T22:51:20.341Z,10.81
2022-11-23T22:53:46.722Z,10.75
2022-11-23T22:56:17.796Z,10.69
2022-11-23T22:58:45.326Z,10.63
2022-11-23T23:01:14.469Z,10.59
2022-11-23T23:03:41.530Z,10.52
2022-11-23T23:06:15.351Z,10.50
2022-11-23T23:08:41.743Z,10.46
2022-11-23T23:11:08.252Z,10.44
2022-11-23T23:13:34.668Z,10.44
2022-11-23T23:16:03.071Z,10.43
2022-11-23T23:18:29.454Z,10.44
2022-11-23T23:21:10.708Z,10.45
2022-11-23T23:23:47.279Z,10.46
2022-11-23T23:26:15.883Z,10.45
2022-11-23T23:28:42.369Z,10.45
2022-11-23T23:31:14.121Z,10.43
2022-11-23T23:33:40.775Z,10.40
2022-11-23T23:36:11.582Z,10.38
2022-11-23T23:38:38.654Z,10.36
2022-11-23T23:41:06.605Z,10.34
2022-11-23T23:43:33.878Z,10.33
2022-11-23T23:46:04.771Z,10.33
2022-11-23T23:48:33.803Z,10.32
2022-11-23T23:51:11.139Z,10.31
2022-11-23T23:53:38.409Z,10.26
2022-11-23T23:56:07.644Z,10.22
2022-11-23T23:58:34.812Z,10.18
